Juan de Fuca Strait - east entrance: Past 24 Hour Conditions

 

Victoria Int'l Airport

05:00 AM PST 28 November 2014
This table is a summary of hourly weather conditions for the past 24 hours.
Date / Time
(PST)
Wind(knots) Conditions Visibility(km) Pressure(kPa) Air tempC) Relative humidity(%) Dew pointC)
28 November 2014
5:00 N 5 Light Rainshower 19 100.0 8 91 6
4:00 N 9 Light Rainshower 24 100.0 9 91 7
3:00 SSW 6 Light Rainshower 24 100.0 13 79 9
2:00 S 7 Mostly Cloudy 32 99.9 13 76 9
1:00 SSW 15 Light Rain 32 99.9 13 82 10
0:00 S 6 gust 16 Light Rainshower 32 100.0 13 81 10
27 November 2014
23:00 SSE 11 gust 19 Mostly Cloudy 32 100.1 14 74 10
22:00 S 4 Mostly Cloudy 32 100.1 15 71 9
21:00 S 11 Light Rainshower 32 100.1 14 78 10
20:00 SE 3 Mostly Cloudy 48 100.2 14 77 10
19:00 SW 9 gust 16 Light Rainshower 48 100.3 14 78 10
18:00 S 9 gust 21 Light Rainshower 48 100.3 14 76 10
17:00 S 10 gust 20 Mostly Cloudy 48 100.3 14 79 10
16:00 SSW 12 gust 20 Light Rainshower 48 100.4 14 82 11
15:00 SSW 13 gust 22 Partly Cloudy 48 100.4 15 76 11
14:00 S 11 gust 18 Partly Cloudy 48 100.4 15 75 11
13:00 SSE 13 Light Rainshower 32 100.5 15 78 11
12:00 ESE 9 gust 18 Mostly Cloudy 48 100.6 13 81 10
11:00 ESE 7 Partly Cloudy 48 100.6 17 66 10
10:00 SSE 8 Mostly Cloudy 32 100.6 14 84 11
9:00 SSE 12 Mostly Cloudy 32 100.7 12 93 11
8:00 SSE 13 Mostly Cloudy 11 100.7 11 96 10
7:00 SSE 14 Light Rain 2 100.7 11 95 10
6:00 SSE 16 gust 23 Light Rain 2 100.7 11 95 10
5:00 SSE 9 gust 16 Light Rain 19 100.7 12 95 11
 
Map of Pacific - Georgia Basin marine weather areas Tsawwassen Ferry Terminal Sentry Shoal - 46131 Halibut Bank - 46146 La Perouse Bank - 46206 Discovery Island Esquimalt Harbour Kelp Reefs Malahat Race Rocks Lightstation Saturna Island Sheringham Point University of Victoria Victoria Gonzales Victoria Int'l Airport Ballenas Islands Campbell River Airport Comox Airport Entrance Island Fanny Island Nanaimo Airport Sisters Islets Estevan Point Tofino Airport Grief Point Powell River Airport Sechelt Point Atkinson Sand Heads Lightstation Vancouver Harbour Vancouver Int'l Airport West Vancouver Port Alberni Howe Sound - Pam Rocks Squamish Airport